Durham — WDF3868 — position and weather

sailwx.info

Track history (hours):
 
Tides and Currents Weather Stations Pressure Air Temp Water Temp Dewpoint Dewpoint Depression Visibility Wind Speed Wind Dir Waves Ship Positions

Durham

Owner: KEN'S BOOMING & BOAT SERVICE, INC., BAYONNE, NJ. More information available from US FCC via Universal Licensing System and Coast Guard Vessel Documentation Center.

Last reported at 2014-Nov-18 23:33 UTC. Time now 2014-Nov-22 00:22 UTC.
Position N 40°46' W 073°57'.

MMSI: 367444950.

Date/timePositionNaut miles runAvg speedWind from/ knotsBaromVisibWave heightAir tempDewpointWater temp
2014-Nov-18 23:33N 40°46' W 073°57'9 8.6
2014-Nov-18 22:34N 40°39' W 074°05'  
2014-Nov-16 02:25N 40°39' W 074°07'910.0
2014-Nov-16 01:33N 40°44' W 073°58'2 0.1
2014-Nov-14 21:10N 40°46' W 073°57'5 8.9
2014-Nov-14 20:33N 40°41' W 074°02'6 2.6
2014-Nov-14 18:27N 40°40' W 074°09'2 2.0
2014-Nov-14 17:31N 40°42' W 074°08'3 3.3
2014-Nov-14 16:33N 40°39' W 074°09'6 5.9
2014-Nov-14 15:33N 40°41' W 074°01'5 4.6
2014-Nov-14 14:33N 40°45' W 073°58'4 0.2
2014-Nov-13 20:23N 40°47' W 073°53'3 3.6
2014-Nov-13 19:27N 40°46' W 073°57'6 6.4
2014-Nov-13 18:33N 40°41' W 074°01'6 5.2
2014-Nov-13 17:30N 40°40' W 074°09'4 3.3
2014-Nov-13 16:14N 40°44' W 074°07'5 2.9
2014-Nov-13 14:30N 40°39' W 074°08'8 8.7
2014-Nov-13 13:33N 40°43' W 073°58'  
Track history (hours):
 
Tides and Currents Weather Stations Pressure Air Temp Water Temp Dewpoint Dewpoint Depression Visibility Wind Speed Wind Dir Waves Ship Positions

Durham

Owner: KEN'S BOOMING & BOAT SERVICE, INC., BAYONNE, NJ. More information available from US FCC via Universal Licensing System and Coast Guard Vessel Documentation Center.

Last reported at 2014-Nov-18 23:33 UTC. Time now 2014-Nov-22 00:22 UTC.
Position N 40°46' W 073°57'.

MMSI: 367444950.

Date/timePositionNaut miles runAvg speedWind from/ knotsBaromVisibWave heightAir tempDewpointWater temp
2014-Nov-18 23:33N 40°46' W 073°57'9 8.6
2014-Nov-18 22:34N 40°39' W 074°05'  
2014-Nov-16 02:25N 40°39' W 074°07'910.0
2014-Nov-16 01:33N 40°44' W 073°58'2 0.1
2014-Nov-14 21:10N 40°46' W 073°57'5 8.9
2014-Nov-14 20:33N 40°41' W 074°02'6 2.6
2014-Nov-14 18:27N 40°40' W 074°09'2 2.0
2014-Nov-14 17:31N 40°42' W 074°08'3 3.3
2014-Nov-14 16:33N 40°39' W 074°09'6 5.9
2014-Nov-14 15:33N 40°41' W 074°01'5 4.6
2014-Nov-14 14:33N 40°45' W 073°58'4 0.2
2014-Nov-13 20:23N 40°47' W 073°53'3 3.6
2014-Nov-13 19:27N 40°46' W 073°57'6 6.4
2014-Nov-13 18:33N 40°41' W 074°01'6 5.2
2014-Nov-13 17:30N 40°40' W 074°09'4 3.3
2014-Nov-13 16:14N 40°44' W 074°07'5 2.9
2014-Nov-13 14:30N 40°39' W 074°08'8 8.7
2014-Nov-13 13:33N 40°43' W 073°58'  

Dump ship's entire track history